Time;durP1;ratioP1;P1;durP2;ratioP2;P2;SDS_P1;SDS_P2;PMS_P1;PMS_P2;Temp;Humidity;BMP_temperature;BMP_pressure;BME280_temperature;BME280_humidity;BME280_pressure;Samples;Min_cycle;Max_cycle;Signal;HPM_P1;HPM_P2
2021/05/13 00:03:03;;;;;;;23.25;15.45;;;;;;;5.80;93.71;99740.29;1771786;81;21189;-78
2021/05/13 00:06:09;;;;;;;21.70;15.10;;;;;;;5.78;94.24;99744.50;1771848;81;21303;-78
2021/05/13 00:09:15;;;;;;;22.05;15.72;;;;;;;5.77;94.84;99744.67;1771830;81;21181;-78
2021/05/13 00:12:38;;;;;;;29.12;20.68;;;;;;;5.77;95.47;99738.73;1770176;80;21218;-78
2021/05/13 00:15:38;;;;;;;26.27;20.92;;;;;;;5.81;96.16;99737.91;1771907;81;21269;-78
2021/05/13 00:18:49;;;;;;;23.98;15.63;;;;;;;5.88;96.93;99737.13;1771551;81;21304;-78
2021/05/13 00:21:55;;;;;;;20.77;15.90;;;;;;;5.99;97.54;99738.74;1771898;81;21264;-78
2021/05/13 00:25:04;;;;;;;29.52;20.17;;;;;;;6.06;97.61;99740.30;1771841;81;21150;-78
2021/05/13 00:28:10;;;;;;;25.62;19.48;;;;;;;6.06;97.44;99741.66;1771811;81;21307;-78
2021/05/13 00:31:15;;;;;;;24.45;18.42;;;;;;;6.11;97.44;99745.58;1771760;81;21264;-78
2021/05/13 00:34:21;;;;;;;36.77;25.15;;;;;;;6.14;97.38;99746.62;1771709;81;21280;-78
2021/05/13 00:37:26;;;;;;;37.48;25.25;;;;;;;6.12;97.08;99741.03;1771732;81;21295;-78
2021/05/13 00:40:33;;;;;;;33.65;24.40;;;;;;;6.13;97.02;99745.44;1771892;81;21280;-78
2021/05/13 00:43:38;;;;;;;39.85;26.17;;;;;;;6.18;97.12;99744.45;1771858;81;21308;-78
2021/05/13 00:46:43;;;;;;;29.50;22.55;;;;;;;6.20;97.10;99745.63;1771968;81;21814;-78
2021/05/13 00:49:50;;;;;;;30.00;21.30;;;;;;;6.18;96.97;99750.39;1771204;81;21295;-78
2021/05/13 00:52:55;;;;;;;18.82;14.03;;;;;;;6.17;96.89;99752.77;1771932;81;21174;-78
2021/05/13 00:56:00;;;;;;;20.40;15.65;;;;;;;6.13;96.62;99749.00;1771879;81;21263;-78
2021/05/13 00:59:08;;;;;;;15.40;11.45;;;;;;;6.08;96.11;99749.15;1771810;81;21237;-78
2021/05/13 01:02:12;;;;;;;21.40;14.28;;;;;;;6.03;95.64;99759.13;1781972;80;21232;-78
2021/05/13 01:05:18;;;;;;;17.37;13.68;;;;;;;5.93;94.83;99771.97;1785529;80;21192;-78
2021/05/13 01:08:23;;;;;;;17.27;11.90;;;;;;;5.90;94.63;99773.09;1785529;80;21219;-78
2021/05/13 01:11:29;;;;;;;17.62;12.18;;;;;;;5.87;94.43;99780.19;1785542;80;21300;-78
2021/05/13 01:17:53;;;;;;;16.10;11.18;;;;;;;5.84;94.47;99756.09;1785565;80;21287;-78
2021/05/13 01:20:49;;;;;;;20.48;9.93;;;;;;;5.79;94.10;99753.02;1784531;80;21853;-78
2021/05/13 01:23:54;;;;;;;10.90;7.53;;;;;;;5.69;93.54;99756.30;1785589;80;21319;-78
2021/05/13 01:26:59;;;;;;;8.43;6.72;;;;;;;5.60;92.90;99746.44;1783975;80;21157;-78
2021/05/13 01:30:04;;;;;;;12.53;9.75;;;;;;;5.51;92.29;99756.36;1785680;80;21256;-78
2021/05/13 01:33:09;;;;;;;13.13;10.70;;;;;;;5.45;92.02;99769.17;1785628;80;21303;-78
2021/05/13 01:36:14;;;;;;;13.98;9.35;;;;;;;5.46;92.41;99776.80;1785616;80;21810;-78
2021/05/13 01:39:20;;;;;;;11.05;8.48;;;;;;;5.52;93.11;99779.77;1785592;80;21184;-78
2021/05/13 01:42:25;;;;;;;11.65;8.88;;;;;;;5.57;94.12;99784.72;1785598;80;21366;-78
2021/05/13 01:45:30;;;;;;;12.47;9.10;;;;;;;5.55;94.79;99782.65;1785680;80;21276;-78
2021/05/13 01:48:35;;;;;;;9.93;7.67;;;;;;;5.54;95.15;99776.88;1785703;80;21644;-78
2021/05/13 01:51:41;;;;;;;11.40;8.05;;;;;;;5.58;95.34;99783.70;1785457;80;21845;-78
2021/05/13 01:54:48;;;;;;;8.98;6.78;;;;;;;5.56;95.32;99789.80;1785615;80;21272;-78
2021/05/13 01:57:53;;;;;;;10.08;8.10;;;;;;;5.50;94.96;99792.61;1785576;80;21196;-78
2021/05/13 02:00:58;;;;;;;8.38;6.87;;;;;;;5.51;94.97;99801.13;1785620;80;21773;-78
2021/05/13 02:04:04;;;;;;;12.82;8.95;;;;;;;5.52;94.95;99797.40;1777342;81;21203;-78
2021/05/13 02:07:10;;;;;;;8.60;6.30;;;;;;;5.53;94.88;99807.23;1777456;81;21302;-78
2021/05/13 02:10:18;;;;;;;9.73;7.53;;;;;;;5.57;94.96;99808.63;1775686;80;21151;-78
2021/05/13 02:13:25;;;;;;;10.32;6.20;;;;;;;5.58;94.71;99810.84;1777363;81;21196;-78
2021/05/13 02:16:31;;;;;;;8.13;6.42;;;;;;;5.59;94.51;99822.88;1775718;80;21651;-78
2021/05/13 02:19:37;;;;;;;7.53;5.95;;;;;;;5.58;94.05;99814.91;1777408;81;21286;-78
2021/05/13 02:22:42;;;;;;;7.58;6.22;;;;;;;5.53;93.44;99810.45;1777363;81;21184;-78
2021/05/13 02:25:51;;;;;;;13.22;7.33;;;;;;;5.51;93.05;99817.41;1777402;81;21299;-78
2021/05/13 02:28:58;;;;;;;10.18;7.20;;;;;;;5.51;92.79;99827.41;1777361;81;21298;-78
2021/05/13 02:32:03;;;;;;;8.23;6.62;;;;;;;5.52;92.63;99821.81;1777391;81;21307;-78
2021/05/13 02:35:07;;;;;;;6.58;5.67;;;;;;;5.57;92.30;99819.98;1777283;81;21204;-78
2021/05/13 02:38:13;;;;;;;8.78;6.45;;;;;;;5.82;92.25;99818.32;1777350;81;21318;-78
2021/05/13 02:41:19;;;;;;;12.82;7.17;;;;;;;6.22;92.12;99812.88;1777322;81;21279;-78
2021/05/13 02:44:24;;;;;;;9.83;7.62;;;;;;;6.71;91.75;99813.12;1777318;81;21212;-79
2021/05/13 02:47:30;;;;;;;12.45;6.78;;;;;;;7.18;91.50;99812.08;1777372;81;21291;-79
2021/05/13 02:50:36;;;;;;;13.13;7.53;;;;;;;7.56;91.12;99811.11;1777334;81;21294;-79
2021/05/13 02:53:41;;;;;;;18.02;9.43;;;;;;;7.84;90.55;99803.45;1777325;81;21219;-79
2021/05/13 02:56:46;;;;;;;13.43;8.28;;;;;;;8.15;90.30;99801.73;1777426;81;21255;-79
2021/05/13 03:00:01;;;;;;;8.70;5.50;;;;;;;8.49;89.81;99795.72;1777400;81;21124;-79
2021/05/13 03:03:01;;;;;;;4.67;3.85;;;;;;;8.81;88.84;99788.77;1776460;80;21785;-79
2021/05/13 03:06:05;;;;;;;7.10;3.83;;;;;;;9.12;87.06;99787.39;1771821;81;21340;-79
2021/05/13 03:09:15;;;;;;;9.13;3.98;;;;;;;9.40;84.70;99788.24;1770220;80;21235;-79
2021/05/13 03:12:19;;;;;;;9.63;4.62;;;;;;;9.64;82.66;99785.33;1771870;81;21150;-79
2021/05/13 03:15:25;;;;;;;7.58;5.90;;;;;;;9.87;81.40;99781.20;1769343;81;21173;-79
2021/05/13 03:18:32;;;;;;;6.62;5.15;;;;;;;10.16;80.67;99785.02;1741310;82;21200;-79
2021/05/13 03:21:40;;;;;;;13.00;5.60;;;;;;;10.47;79.43;99783.53;1735394;81;21745;-79
2021/05/13 03:24:50;;;;;;;7.37;5.95;;;;;;;10.69;78.35;99776.28;1751385;81;21694;-79
2021/05/13 03:27:55;;;;;;;7.58;5.62;;;;;;;10.83;77.81;99789.09;1746582;81;21284;-79
2021/05/13 03:31:00;;;;;;;13.85;6.78;;;;;;;10.92;77.03;99797.52;1747745;81;21280;-79
2021/05/13 03:34:05;;;;;;;8.58;5.83;;;;;;;10.68;77.14;99794.58;1749735;81;21251;-79
2021/05/13 03:37:10;;;;;;;10.45;5.97;;;;;;;10.61;78.12;99800.98;1767632;81;21260;-80
2021/05/13 03:40:16;;;;;;;11.73;7.05;;;;;;;10.65;78.46;99810.52;1737137;81;21760;-80
2021/05/13 03:43:22;;;;;;;18.77;8.20;;;;;;;10.73;78.94;99823.58;1754379;81;21263;-80
2021/05/13 03:46:29;;;;;;;16.82;9.08;;;;;;;10.88;79.30;99830.41;1754040;81;21259;-80
2021/05/13 03:49:34;;;;;;;13.18;9.30;;;;;;;11.03;79.38;99832.28;1756997;81;21276;-79
2021/05/13 03:52:39;;;;;;;13.03;7.83;;;;;;;11.21;79.44;99832.72;1733933;81;21205;-80
2021/05/13 03:55:48;;;;;;;13.83;7.10;;;;;;;11.34;79.42;99836.99;1751863;81;21184;-79
2021/05/13 03:58:58;;;;;;;9.88;7.22;;;;;;;11.43;79.37;99845.42;1732640;81;21755;-80
2021/05/13 04:05:08;;;;;;;10.50;7.15;;;;;;;11.57;79.24;99859.23;1753915;80;21264;-80
2021/05/13 04:08:14;;;;;;;13.65;7.20;;;;;;;11.71;79.24;99851.48;1748135;81;21146;-80
2021/05/13 04:11:20;;;;;;;9.35;6.85;;;;;;;11.82;79.43;99854.25;1739213;81;21279;-80
2021/05/13 04:14:25;;;;;;;13.48;7.00;;;;;;;11.98;79.58;99856.23;1740024;81;21277;-80
2021/05/13 04:17:31;;;;;;;10.15;7.17;;;;;;;12.11;79.42;99859.62;1752958;79;21291;-80
2021/05/13 04:20:36;;;;;;;11.93;7.08;;;;;;;12.25;79.17;99855.95;1744177;81;21201;-80
2021/05/13 04:23:42;;;;;;;9.40;6.58;;;;;;;12.43;78.34;99849.13;1747417;81;21319;-80
2021/05/13 04:26:48;;;;;;;11.97;6.97;;;;;;;12.59;77.10;99841.11;1749958;79;21157;-80
2021/05/13 04:29:54;;;;;;;8.70;7.05;;;;;;;12.76;76.16;99840.59;1751537;81;21288;-80
2021/05/13 04:33:00;;;;;;;11.75;7.70;;;;;;;12.89;75.95;99838.95;1751418;81;21319;-80
2021/05/13 04:36:06;;;;;;;11.12;6.90;;;;;;;12.93;75.89;99832.86;1762963;81;21264;-81
2021/05/13 04:39:11;;;;;;;12.35;7.72;;;;;;;12.85;75.53;99837.17;1776623;79;21810;-81
2021/05/13 04:42:19;;;;;;;10.72;7.80;;;;;;;12.70;75.71;99839.16;1765143;81;21770;-80
2021/05/13 04:45:25;;;;;;;10.68;7.55;;;;;;;12.74;76.63;99850.91;1751354;80;21391;-81
2021/05/13 04:48:52;;;;;;;10.00;8.00;;;;;;;12.92;77.62;99846.27;1760106;81;21323;-81
2021/05/13 04:51:41;;;;;;;9.55;7.35;;;;;;;13.04;76.89;99847.41;1759225;80;21228;-81
2021/05/13 04:54:47;;;;;;;12.03;8.43;;;;;;;13.10;76.30;99840.77;1754824;80;21169;-79
2021/05/13 04:57:54;;;;;;;10.50;7.92;;;;;;;13.13;75.44;99841.75;1759978;79;21189;-78
2021/05/13 05:01:01;;;;;;;14.80;7.78;;;;;;;13.16;76.00;99839.41;1751553;81;21299;-80
2021/05/13 05:04:05;;;;;;;11.60;7.85;;;;;;;13.24;75.65;99841.19;1755727;79;21750;-80
2021/05/13 05:07:11;;;;;;;11.05;7.33;;;;;;;13.37;75.67;99854.98;1732076;80;21824;-80
2021/05/13 05:10:17;;;;;;;12.23;7.47;;;;;;;13.54;76.08;99853.53;1730826;80;21715;-81
2021/05/13 05:13:23;;;;;;;10.05;6.90;;;;;;;13.72;74.96;99850.20;1731675;82;21210;-81
2021/05/13 05:16:29;;;;;;;15.43;6.53;;;;;;;13.90;74.07;99848.23;1739269;80;21167;-81
2021/05/13 05:19:36;;;;;;;10.53;5.87;;;;;;;14.13;73.26;99847.84;1698278;82;22246;-80
2021/05/13 05:22:41;;;;;;;9.00;6.62;;;;;;;14.22;71.71;99852.61;1686618;83;21193;-81
2021/05/13 05:25:50;;;;;;;11.75;7.12;;;;;;;14.10;70.87;99837.25;1681629;83;21237;-81
2021/05/13 05:28:54;;;;;;;11.55;7.50;;;;;;;13.97;71.48;99844.98;1682602;84;21794;-81
2021/05/13 05:31:59;;;;;;;9.60;6.83;;;;;;;13.88;71.46;99854.48;1679924;83;21268;-85
2021/05/13 05:35:06;;;;;;;10.68;6.35;;;;;;;13.99;72.25;99852.48;1681881;83;21331;-82
2021/05/13 05:38:15;;;;;;;9.88;6.90;;;;;;;14.15;71.93;99850.38;1679318;83;22193;-79
2021/05/13 05:41:21;;;;;;;9.83;6.75;;;;;;;14.30;71.94;99860.63;1685242;83;21825;-80
2021/05/13 05:44:26;;;;;;;9.20;5.58;;;;;;;14.49;71.10;99862.59;1678983;83;21393;-82
2021/05/13 05:47:31;;;;;;;7.33;5.72;;;;;;;14.64;70.52;99865.12;1685294;84;21350;-81
2021/05/13 05:50:43;;;;;;;7.12;4.45;;;;;;;14.82;69.65;99865.30;1683135;83;21241;-81
2021/05/13 05:53:49;;;;;;;7.25;4.97;;;;;;;14.95;66.91;99864.41;1680472;83;21302;-81
2021/05/13 05:56:55;;;;;;;7.33;4.42;;;;;;;14.94;66.71;99859.13;1674866;84;21287;-81
2021/05/13 06:00:02;;;;;;;10.75;5.15;;;;;;;15.05;67.37;99862.58;1681277;83;21841;-81
2021/05/13 06:03:10;;;;;;;6.10;4.53;;;;;;;15.24;66.29;99853.93;1666895;83;21196;-81
2021/05/13 06:06:15;;;;;;;5.83;4.40;;;;;;;15.36;64.46;99860.47;1668995;82;21805;-81
2021/05/13 06:09:25;;;;;;;6.62;4.47;;;;;;;15.39;65.01;99865.55;1695055;83;21890;-88
2021/05/13 06:12:32;;;;;;;7.08;4.15;;;;;;;15.43;65.05;99866.81;1680587;83;21208;-84
2021/05/13 06:15:39;;;;;;;7.12;4.22;;;;;;;15.58;64.74;99875.63;1712019;82;21912;-90
2021/05/13 06:19:02;;;;;;;7.65;4.75;;;;;;;15.81;62.73;99877.04;1716218;83;21221;-90
2021/05/13 06:22:12;;;;;;;7.65;4.90;;;;;;;16.02;62.05;99876.68;1719387;83;21314;-91
2021/05/13 06:25:26;;;;;;;9.65;4.50;;;;;;;16.23;61.51;99874.61;1683006;83;21312;-90
2021/05/13 06:28:52;;;;;;;7.30;4.22;;;;;;;16.38;61.25;99868.26;1681884;84;21224;-85
2021/05/13 06:31:59;;;;;;;9.20;4.10;;;;;;;16.55;59.68;99861.08;1679166;84;21199;-85
2021/05/13 06:35:06;;;;;;;8.03;3.62;;;;;;;16.68;58.12;99870.32;1656632;83;21212;-86
2021/05/13 06:38:18;;;;;;;9.75;4.47;;;;;;;16.61;57.59;99864.33;1677428;84;21749;-90
2021/05/13 06:41:26;;;;;;;12.35;4.78;;;;;;;16.61;57.53;99864.87;1670999;82;21170;-88
2021/05/13 06:48:12;;;;;;;9.05;4.15;;;;;;;16.57;56.87;99863.09;1710359;82;21335;-83
2021/05/13 06:51:22;;;;;;;7.83;4.28;;;;;;;16.67;57.16;99864.50;1712205;82;21861;-84
2021/05/13 06:54:37;;;;;;;5.65;3.72;;;;;;;16.76;56.75;99857.11;1680081;83;21412;-83
2021/05/13 06:58:09;;;;;;;5.45;4.20;;;;;;;16.86;55.93;99855.20;1677190;84;21344;-85
2021/05/13 07:01:22;;;;;;;7.83;4.03;;;;;;;16.89;54.37;99850.61;1679798;84;22398;-86
2021/05/13 07:04:32;;;;;;;3.55;2.87;;;;;;;16.89;54.81;99852.50;1706667;82;21958;-83
2021/05/13 07:07:39;;;;;;;5.33;3.87;;;;;;;16.95;54.51;99859.36;1709636;83;21226;-86
2021/05/13 07:10:47;;;;;;;8.63;4.45;;;;;;;16.96;54.04;99866.56;1706599;82;21316;-84
2021/05/13 07:13:57;;;;;;;6.90;3.75;;;;;;;17.00;54.23;99865.03;1708393;82;21394;-86
2021/05/13 07:17:08;;;;;;;;;;;;;;;17.18;53.76;99871.66;1706687;82;22322;-83
2021/05/13 07:20:22;;;;;;;4.72;3.30;;;;;;;17.33;53.71;99869.34;1679655;82;20226;-85
2021/05/13 07:23:29;;;;;;;8.15;4.20;;;;;;;17.47;53.97;99877.77;1707061;82;21845;-83
2021/05/13 07:26:45;;;;;;;4.45;3.15;;;;;;;17.44;52.88;99878.77;1701288;82;21243;-81
2021/05/13 07:30:05;;;;;;;6.60;3.72;;;;;;;17.42;53.44;99876.78;1678575;82;21233;-83
2021/05/13 07:33:15;;;;;;;9.15;4.17;;;;;;;17.37;51.28;99874.72;1717525;81;21581;-85
2021/05/13 07:36:22;;;;;;;6.08;3.90;;;;;;;17.30;49.80;99869.79;1734414;81;21268;-84
2021/05/13 07:39:27;;;;;;;4.85;3.37;;;;;;;17.22;52.06;99870.09;1708175;82;21222;-83
2021/05/13 07:42:32;;;;;;;4.08;3.67;;;;;;;17.31;54.15;99872.85;1710000;83;21299;-81
2021/05/13 07:45:42;;;;;;;4.83;3.10;;;;;;;17.43;52.08;99872.94;1731232;81;21270;-81
2021/05/13 07:48:48;;;;;;;4.93;3.47;;;;;;;17.45;49.18;99868.84;1707828;82;21365;-85
2021/05/13 07:51:53;;;;;;;10.48;3.65;;;;;;;17.46;51.49;99859.50;1711242;83;21219;-83
2021/05/13 07:55:00;;;;;;;6.08;3.50;;;;;;;17.46;50.55;99862.27;1719872;82;22260;-83
2021/05/13 07:58:05;;;;;;;5.17;3.72;;;;;;;17.48;50.80;99862.87;1721698;82;21338;-81
2021/05/13 08:01:12;;;;;;;5.90;3.42;;;;;;;17.45;51.58;99859.72;1721562;82;21340;-81
2021/05/13 08:04:16;;;;;;;4.87;3.25;;;;;;;17.40;49.73;99862.33;1717487;82;21299;-81
2021/05/13 08:07:22;;;;;;;4.28;3.45;;;;;;;17.25;50.32;99858.59;1723161;82;21296;-80
2021/05/13 08:10:30;;;;;;;10.20;3.72;;;;;;;17.26;50.65;99864.41;1683826;84;21295;-80
2021/05/13 08:13:36;;;;;;;4.72;3.80;;;;;;;17.26;50.81;99865.25;1683813;83;21299;-81
2021/05/13 08:16:44;;;;;;;8.90;3.00;;;;;;;17.32;53.11;99864.89;1644486;84;21309;-81
2021/05/13 08:19:51;;;;;;;8.55;3.87;;;;;;;17.42;51.30;99862.42;1674930;83;21182;-80
2021/05/13 08:22:57;;;;;;;3.92;2.80;;;;;;;17.49;50.63;99866.47;1671992;84;21216;-81
2021/05/13 08:26:03;;;;;;;8.30;2.90;;;;;;;17.53;47.17;99864.94;1673478;83;21177;-82
2021/05/13 08:29:09;;;;;;;4.75;3.50;;;;;;;17.39;49.32;99864.26;1659764;84;22147;-81
2021/05/13 08:32:14;;;;;;;3.35;3.05;;;;;;;17.33;48.80;99857.74;1680732;83;21184;-81
2021/05/13 08:35:22;;;;;;;3.92;3.17;;;;;;;17.33;49.11;99860.50;1684733;84;21978;-80
2021/05/13 08:38:29;;;;;;;5.80;2.70;;;;;;;17.44;49.25;99869.94;1680232;83;21236;-84
2021/05/13 08:41:36;;;;;;;3.87;2.87;;;;;;;17.45;48.39;99863.32;1686159;84;21814;-81
2021/05/13 08:44:53;;;;;;;3.77;3.30;;;;;;;17.43;48.20;99868.25;1681386;83;21288;-84
2021/05/13 08:48:07;;;;;;;6.30;3.33;;;;;;;17.49;50.30;99868.70;1667098;83;21326;-83
2021/05/13 08:51:14;;;;;;;3.58;2.85;;;;;;;17.54;46.67;99863.85;1681698;83;21302;-84
2021/05/13 08:54:23;;;;;;;6.17;3.50;;;;;;;17.50;48.69;99864.87;1681039;84;21352;-81
2021/05/13 08:57:29;;;;;;;4.22;2.83;;;;;;;17.54;47.38;99866.08;1681934;84;21291;-80
2021/05/13 09:00:36;;;;;;;3.80;2.52;;;;;;;17.51;45.05;99858.27;1680791;84;21283;-81
2021/05/13 09:03:44;;;;;;;5.65;2.35;;;;;;;17.42;43.14;99853.28;1681182;83;21216;-81
2021/05/13 09:06:51;;;;;;;4.47;3.10;;;;;;;17.38;45.06;99858.43;1659875;84;22143;-81
2021/05/13 09:10:14;;;;;;;4.45;2.77;;;;;;;17.38;44.97;99857.89;1698088;82;21370;-80
2021/05/13 09:13:20;;;;;;;7.97;3.00;;;;;;;17.35;47.64;99852.81;1722308;82;21815;-82
2021/05/13 09:16:39;;;;;;;5.12;2.72;;;;;;;17.43;43.72;99851.66;1662151;82;21723;-81
2021/05/13 09:19:46;;;;;;;4.25;2.98;;;;;;;17.41;44.03;99852.45;1720160;82;21445;-81
2021/05/13 09:22:52;;;;;;;5.58;3.30;;;;;;;17.41;43.31;99849.69;1700483;82;21207;-81
2021/05/13 09:26:17;;;;;;;6.08;3.30;;;;;;;17.43;41.76;99853.05;1712660;82;21178;-82
2021/05/13 09:29:23;;;;;;;7.30;3.87;;;;;;;17.38;40.38;99853.74;1713269;83;21818;-82
2021/05/13 09:32:28;;;;;;;3.27;2.65;;;;;;;17.33;42.13;99851.38;1691151;83;21217;-84
2021/05/13 09:35:37;;;;;;;4.40;2.92;;;;;;;17.36;45.48;99853.66;1725834;82;21852;-84
2021/05/13 09:38:44;;;;;;;2.75;2.40;;;;;;;17.49;44.54;99860.41;1723562;82;21903;-85
2021/05/13 09:45:08;;;;;;;9.15;4.03;;;;;;;17.58;41.40;99863.70;1704966;83;21328;-85
2021/05/13 09:48:12;;;;;;;7.67;3.67;;;;;;;17.61;39.10;99864.08;1727936;82;21311;-86
2021/05/13 09:51:36;;;;;;;5.92;3.20;;;;;;;17.60;38.95;99855.48;1709738;81;21391;-82
2021/05/13 09:54:43;;;;;;;5.37;3.50;;;;;;;17.60;39.00;99855.48;1706088;83;21350;-81
2021/05/13 09:57:48;;;;;;;7.15;3.77;;;;;;;17.58;42.08;99857.63;1704874;83;21327;-81
2021/05/13 10:00:56;;;;;;;8.00;3.40;;;;;;;17.68;38.87;99856.23;1703608;83;21296;-82
2021/05/13 10:04:01;;;;;;;7.67;3.83;;;;;;;17.68;38.70;99866.75;1728459;82;21306;-83
2021/05/13 10:07:07;;;;;;;10.20;4.00;;;;;;;17.64;38.33;99868.28;1721434;81;21770;-87
2021/05/13 10:10:14;;;;;;;8.30;4.58;;;;;;;17.61;39.45;99858.55;1724549;81;21727;-83
2021/05/13 10:13:21;;;;;;;11.73;5.20;;;;;;;17.64;40.61;99866.91;1723429;81;21311;-82
2021/05/13 10:16:31;;;;;;;10.68;4.85;;;;;;;17.67;39.95;99865.61;1722904;81;21549;-82
2021/05/13 10:19:47;;;;;;;15.53;4.80;;;;;;;17.64;40.28;99857.22;1721868;81;21220;-82
2021/05/13 10:22:52;;;;;;;9.68;4.87;;;;;;;17.69;40.33;99862.92;1725499;81;21618;-83
2021/05/13 10:26:03;;;;;;;9.45;4.33;;;;;;;17.82;40.22;99853.06;1731240;80;21869;-81
2021/05/13 10:29:08;;;;;;;8.40;4.05;;;;;;;17.87;39.35;99853.75;1769572;80;21203;-83
2021/05/13 10:32:22;;;;;;;6.72;3.50;;;;;;;17.96;39.95;99857.03;1770306;79;21651;-84
2021/05/13 10:35:30;;;;;;;6.87;3.42;;;;;;;18.01;39.05;99848.32;1769031;79;21309;-82
2021/05/13 10:38:55;;;;;;;5.42;3.37;;;;;;;18.05;41.87;99847.31;1733309;80;21199;-81
2021/05/13 10:42:00;;;;;;;8.40;3.30;;;;;;;18.24;39.92;99855.00;1769611;79;21184;-81
2021/05/13 10:45:06;;;;;;;9.80;2.75;;;;;;;18.29;39.14;99857.36;1770460;80;21232;-80
2021/05/13 10:48:28;;;;;;;5.65;2.12;;;;;;;18.36;41.03;99860.03;1768106;79;21160;-82
2021/05/13 10:51:33;;;;;;;3.45;2.33;;;;;;;18.47;39.84;99851.44;1769599;80;21722;-82
2021/05/13 10:54:43;;;;;;;4.00;2.35;;;;;;;18.58;38.63;99854.74;1767687;80;21260;-81
2021/05/13 10:58:01;;;;;;;10.00;3.60;;;;;;;18.67;36.46;99851.92;1733240;80;21319;-82
2021/05/13 11:01:38;;;;;;;8.00;4.50;;;;;;;18.71;38.33;99852.32;1773074;79;21291;-82
2021/05/13 11:04:44;;;;;;;28.17;7.30;;;;;;;18.82;39.36;99853.72;1772934;79;21298;-83
2021/05/13 11:07:52;;;;;;;18.85;5.35;;;;;;;18.90;36.75;99846.95;1769289;79;21183;-87
2021/05/13 11:11:06;;;;;;;25.35;6.87;;;;;;;18.91;38.39;99840.31;1769064;79;21640;-84
2021/05/13 11:14:28;;;;;;;48.68;10.48;;;;;;;18.97;37.60;99844.07;1730847;80;21172;-87
2021/05/13 11:18:01;;;;;;;16.27;6.42;;;;;;;19.04;39.48;99845.61;1729529;80;21884;-84
2021/05/13 11:21:09;;;;;;;8.65;4.20;;;;;;;19.13;38.04;99845.54;1725049;80;21171;-84
2021/05/13 11:24:22;;;;;;;14.40;5.45;;;;;;;19.05;36.50;99850.06;1729300;80;21309;-85
2021/05/13 11:27:45;;;;;;;9.20;4.12;;;;;;;18.90;35.78;99844.18;1727172;81;21931;-86
2021/05/13 11:30:53;;;;;;;11.22;3.02;;;;;;;18.82;37.69;99848.18;1730670;80;21259;-84
2021/05/13 11:34:06;;;;;;;9.73;4.05;;;;;;;18.81;39.62;99844.24;1735372;80;21639;-81
2021/05/13 11:37:48;;;;;;;8.40;3.52;;;;;;;18.80;39.64;99843.95;1733502;82;22461;-85
2021/05/13 11:40:53;;;;;;;12.25;6.10;;;;;;;18.83;41.42;99845.70;1709028;82;21231;-84
2021/05/13 11:44:00;;;;;;;17.48;6.47;;;;;;;18.81;42.46;99855.33;1724971;80;21310;-84
2021/05/13 11:47:06;;;;;;;19.87;6.25;;;;;;;18.76;44.87;99857.98;1709722;80;21820;-83
2021/05/13 11:50:13;;;;;;;11.00;6.40;;;;;;;18.78;44.71;99864.14;1704152;82;21348;-83
2021/05/13 11:53:24;;;;;;;9.15;4.72;;;;;;;18.79;44.46;99861.12;1727171;80;21321;-83
2021/05/13 11:56:29;;;;;;;13.85;4.10;;;;;;;18.82;44.57;99861.16;1711194;80;21863;-83
2021/05/13 11:59:37;;;;;;;9.35;4.45;;;;;;;18.93;41.78;99846.48;1708265;80;21610;-87
2021/05/13 12:02:45;;;;;;;17.57;6.75;;;;;;;19.12;41.94;99844.41;1715623;82;21313;-87
2021/05/13 12:06:01;;;;;;;15.55;6.75;;;;;;;19.29;43.43;99840.31;1731562;80;21305;-85
2021/05/13 12:09:08;;;;;;;15.25;6.60;;;;;;;19.45;43.90;99842.34;1728048;82;21225;-85
2021/05/13 12:12:14;;;;;;;12.68;6.83;;;;;;;19.45;42.31;99842.34;1728320;80;21168;-84
2021/05/13 12:15:23;;;;;;;16.60;7.25;;;;;;;19.38;42.27;99840.23;1762382;80;21399;-85
2021/05/13 12:18:29;;;;;;;17.42;7.42;;;;;;;19.29;42.44;99841.70;1735080;80;21898;-86
2021/05/13 12:21:35;;;;;;;12.95;5.90;;;;;;;19.23;42.66;99835.76;1730156;80;21307;-85
2021/05/13 12:24:45;;;;;;;16.77;7.37;;;;;;;19.17;42.70;99832.04;1772338;79;22077;-85
2021/05/13 12:27:51;;;;;;;15.35;6.60;;;;;;;19.04;42.36;99826.20;1746306;79;21662;-85
2021/05/13 12:31:04;;;;;;;34.40;9.00;;;;;;;18.89;43.43;99830.88;1736277;79;21125;-85
2021/05/13 12:34:13;;;;;;;21.82;7.62;;;;;;;18.82;43.49;99827.40;1764643;80;21283;-86
2021/05/13 12:37:34;;;;;;;15.55;6.95;;;;;;;18.87;43.08;99819.20;1741677;79;21153;-85
2021/05/13 12:40:41;;;;;;;34.20;9.55;;;;;;;18.96;44.35;99815.52;1771979;80;21289;-85
2021/05/13 12:43:55;;;;;;;20.65;9.18;;;;;;;19.04;44.77;99820.66;1767564;79;21345;-86
2021/05/13 12:47:01;;;;;;;21.65;8.65;;;;;;;19.05;43.00;99829.82;1771389;79;21319;-85
2021/05/13 12:50:17;;;;;;;15.65;7.58;;;;;;;19.02;44.30;99824.23;1742434;80;21188;-85
2021/05/13 12:53:25;;;;;;;17.85;7.90;;;;;;;19.07;44.68;99822.96;1769017;80;21287;-85
2021/05/13 12:56:40;;;;;;;18.75;7.72;;;;;;;19.17;46.21;99827.05;1712236;82;21329;-85
2021/05/13 12:59:48;;;;;;;18.30;8.10;;;;;;;19.27;43.66;99827.25;1761637;79;22191;-85
2021/05/13 13:02:54;;;;;;;20.35;8.05;;;;;;;19.26;45.12;99824.19;1765968;80;21283;-85
2021/05/13 13:06:00;;;;;;;13.18;6.05;;;;;;;19.26;44.39;99829.19;1765702;80;21263;-84
2021/05/13 13:09:09;;;;;;;26.33;8.73;;;;;;;19.25;44.75;99822.52;1758968;80;21299;-85
2021/05/13 13:12:18;;;;;;;21.70;9.10;;;;;;;19.21;43.39;99819.38;1740508;82;21759;-85
2021/05/13 13:15:52;;;;;;;30.25;11.45;;;;;;;19.13;43.43;99823.36;1735242;82;21172;-85
2021/05/13 13:18:53;;;;;;;27.00;10.43;;;;;;;19.06;43.98;99817.13;1689079;82;21212;-86
2021/05/13 13:22:10;;;;;;;12.05;5.45;;;;;;;19.04;43.42;99820.66;1712670;82;21319;-87
2021/05/13 13:25:21;;;;;;;10.98;3.50;;;;;;;19.01;43.17;99811.47;1714961;82;21275;-86
2021/05/13 13:28:27;;;;;;;7.35;3.20;;;;;;;18.96;42.58;99815.52;1695609;83;21310;-85
2021/05/13 13:31:36;;;;;;;10.85;4.12;;;;;;;18.94;44.73;99809.36;1707052;82;21288;-85
2021/05/13 13:34:40;;;;;;;11.35;4.22;;;;;;;18.95;44.43;99802.72;1713707;82;21833;-83
2021/05/13 13:37:46;;;;;;;12.90;6.65;;;;;;;18.98;44.46;99802.80;1723408;82;21303;-84
2021/05/13 13:40:58;;;;;;;12.13;4.42;;;;;;;19.03;44.22;99805.67;1732950;81;21870;-85
2021/05/13 13:44:05;;;;;;;12.18;5.15;;;;;;;19.03;42.86;99803.74;1727384;82;21168;-84
2021/05/13 13:47:10;;;;;;;21.15;8.53;;;;;;;19.08;44.13;99803.85;1725475;82;21787;-84
2021/05/13 13:50:17;;;;;;;23.87;10.38;;;;;;;19.14;45.43;99804.25;1729836;82;21739;-83
2021/05/13 13:53:25;;;;;;;26.50;10.28;;;;;;;19.22;44.11;99799.42;1737661;82;21865;-84
2021/05/13 13:56:29;;;;;;;23.12;9.23;;;;;;;19.28;45.46;99804.81;1714700;83;21835;-83
2021/05/13 13:59:34;;;;;;;20.27;8.48;;;;;;;19.33;43.89;99813.23;1687734;82;21629;-83
2021/05/13 14:02:42;;;;;;;19.57;7.70;;;;;;;19.32;44.65;99811.56;1718614;83;21201;-84
2021/05/13 14:05:47;;;;;;;17.48;6.95;;;;;;;19.35;44.58;99813.02;1698866;83;21936;-84
2021/05/13 14:08:52;;;;;;;20.85;8.18;;;;;;;19.34;43.02;99814.95;1690100;85;21598;-84
2021/05/13 14:11:57;;;;;;;20.43;7.58;;;;;;;19.30;43.10;99810.98;1691302;85;21189;-83
2021/05/13 14:15:02;;;;;;;14.55;5.75;;;;;;;19.27;43.37;99802.30;1694434;83;21296;-83
2021/05/13 14:18:07;;;;;;;42.95;19.87;;;;;;;19.28;43.65;99804.81;1708015;84;21359;-84
2021/05/13 14:21:13;;;;;;;17.95;8.78;;;;;;;19.27;41.69;99794.82;1708785;84;21162;-83
2021/05/13 14:24:18;;;;;;;13.32;5.95;;;;;;;19.26;41.17;99797.84;1708112;84;21944;-84
2021/05/13 14:27:23;;;;;;;12.37;5.97;;;;;;;19.26;41.74;99800.63;1708201;84;21336;-83
2021/05/13 14:30:28;;;;;;;17.45;7.87;;;;;;;19.26;41.09;99800.08;1707960;84;21350;-83
2021/05/13 14:33:34;;;;;;;22.00;9.73;;;;;;;19.30;41.91;99803.20;1708249;84;21241;-84
2021/05/13 14:36:40;;;;;;;20.15;8.63;;;;;;;19.31;42.46;99803.50;1708173;84;21312;-83
2021/05/13 14:39:45;;;;;;;15.75;7.10;;;;;;;19.30;43.00;99792.12;1708805;84;21178;-83
2021/05/13 14:42:51;;;;;;;12.28;5.15;;;;;;;19.33;43.77;99797.15;1708824;84;21872;-81
2021/05/13 14:45:56;;;;;;;9.53;4.12;;;;;;;19.34;43.60;99791.38;1708808;84;21177;-81
2021/05/13 14:49:22;;;;;;;7.70;3.42;;;;;;;19.40;43.25;99790.93;1708706;84;21699;-81
2021/05/13 14:52:21;;;;;;;7.45;2.02;;;;;;;19.43;43.71;99792.35;1708851;84;21332;-81
2021/05/13 14:55:28;;;;;;;7.50;2.50;;;;;;;19.45;43.52;99789.64;1708917;84;21280;-81